Time;durP1;ratioP1;P1;durP2;ratioP2;P2;SDS_P1;SDS_P2;PMS_P1;PMS_P2;Temp;Humidity;BMP_temperature;BMP_pressure;BME280_temperature;BME280_humidity;BME280_pressure;Samples;Min_cycle;Max_cycle;Signal;HPM_P1;HPM_P2
2021/01/03 00:01:46;;;;;;;98.78;37.05;;;4.10;91.80;;;;;;5072916;28;20020;-84
2021/01/03 00:04:12;;;;;;;113.57;40.58;;;4.20;91.90;;;;;;5072967;28;20577;-84
2021/01/03 00:06:38;;;;;;;107.72;39.42;;;4.10;91.90;;;;;;5073384;28;20021;-85
2021/01/03 00:09:05;;;;;;;111.53;40.78;;;4.10;91.90;;;;;;5072626;28;20123;-84
2021/01/03 00:11:30;;;;;;;102.40;38.55;;;4.10;91.90;;;;;;5051961;28;20040;-85
2021/01/03 00:13:56;;;;;;;109.28;39.97;;;4.10;91.90;;;;;;5070080;28;20100;-85
2021/01/03 00:16:22;;;;;;;100.50;39.65;;;4.10;91.90;;;;;;5056788;28;20504;-85
2021/01/03 00:18:47;;;;;;;100.93;39.60;;;4.10;91.90;;;;;;5058993;28;20043;-84
2021/01/03 00:21:13;;;;;;;106.25;40.67;;;4.10;91.90;;;;;;5042874;28;20038;-84
2021/01/03 00:23:40;;;;;;;98.90;38.78;;;4.10;92.30;;;;;;5076296;28;20024;-84
2021/01/03 00:26:06;;;;;;;97.95;37.75;;;4.10;92.00;;;;;;5059270;28;20032;-84
2021/01/03 00:28:31;;;;;;;97.53;35.55;;;4.10;92.00;;;;;;5075621;28;20094;-84
2021/01/03 00:30:57;;;;;;;92.35;38.10;;;4.10;92.00;;;;;;5059070;28;20074;-84
2021/01/03 00:33:23;;;;;;;95.97;37.15;;;4.20;92.00;;;;;;5059494;28;20032;-84
2021/01/03 00:35:49;;;;;;;93.53;37.15;;;4.10;92.00;;;;;;5062863;28;20552;-84
2021/01/03 00:38:15;;;;;;;104.38;38.78;;;4.20;91.90;;;;;;5063283;28;20119;-85
2021/01/03 00:40:41;;;;;;;108.90;38.47;;;4.20;91.90;;;;;;5079939;28;20361;-84
2021/01/03 00:43:08;;;;;;;101.70;38.50;;;4.10;91.90;;;;;;5079971;28;20115;-88
2021/01/03 00:45:34;;;;;;;99.38;38.95;;;4.20;91.90;;;;;;5098468;28;20028;-88
2021/01/03 00:47:59;;;;;;;110.25;41.00;;;4.20;91.90;;;;;;5063944;28;20507;-88
2021/01/03 00:50:26;;;;;;;97.15;38.40;;;4.10;91.80;;;;;;5110406;28;20050;-88
2021/01/03 00:52:52;;;;;;;93.57;38.17;;;4.10;91.80;;;;;;5080303;28;20602;-87
2021/01/03 00:55:18;;;;;;;123.35;42.80;;;4.10;91.90;;;;;;5079736;28;20105;-88
2021/01/03 00:57:44;;;;;;;109.55;40.20;;;4.10;92.10;;;;;;5079847;28;20158;-87
2021/01/03 01:00:25;;;;;;;95.32;36.25;;;4.10;91.90;;;;;;5080118;28;20032;-88
2021/01/03 01:02:51;;;;;;;106.72;39.40;;;4.10;91.90;;;;;;5079035;28;20114;-88
2021/01/03 01:05:17;;;;;;;100.97;37.35;;;4.10;91.90;;;;;;5080006;28;20063;-87
2021/01/03 01:07:43;;;;;;;90.00;37.55;;;4.10;91.90;;;;;;5059513;28;20032;-87
2021/01/03 01:10:12;;;;;;;94.28;35.35;;;4.10;91.90;;;;;;5076873;28;20047;-88
2021/01/03 01:12:38;;;;;;;103.57;37.53;;;4.10;91.90;;;;;;5079771;28;20025;-88
2021/01/03 01:15:13;;;;;;;102.78;37.30;;;4.10;91.90;;;;;;5098096;28;20024;-87
2021/01/03 01:17:40;;;;;;;103.68;37.67;;;4.00;91.90;;;;;;5079575;28;20123;-87
2021/01/03 01:20:08;;;;;;;99.85;37.75;;;4.00;91.90;;;;;;5063583;28;20032;-87
2021/01/03 01:22:34;;;;;;;90.85;37.08;;;4.00;91.90;;;;;;5079826;28;20135;-88
2021/01/03 01:24:59;;;;;;;102.65;38.47;;;4.00;91.90;;;;;;5063323;28;20476;-87
2021/01/03 01:27:25;;;;;;;85.05;34.00;;;4.00;91.90;;;;;;5063011;28;20434;-87
2021/01/03 01:29:50;;;;;;;88.15;34.95;;;4.00;91.90;;;;;;5046534;28;20107;-88
2021/01/03 01:32:16;;;;;;;95.85;36.67;;;4.00;91.90;;;;;;5046325;28;20476;-88
2021/01/03 01:34:42;;;;;;;87.65;35.28;;;4.00;91.90;;;;;;5063129;28;20077;-87
2021/01/03 01:37:07;;;;;;;91.50;35.50;;;4.00;91.90;;;;;;5046227;28;20032;-88
2021/01/03 01:39:33;;;;;;;88.65;34.55;;;4.00;91.90;;;;;;5063018;28;20032;-88
2021/01/03 01:41:58;;;;;;;95.05;36.28;;;4.00;91.90;;;;;;5062573;28;20078;-88
2021/01/03 01:44:24;;;;;;;91.32;35.58;;;4.10;91.90;;;;;;5062488;28;20119;-87
2021/01/03 01:47:05;;;;;;;90.22;37.22;;;4.00;91.90;;;;;;5078216;28;20039;-87
2021/01/03 01:49:37;;;;;;;91.88;34.72;;;4.00;91.90;;;;;;5067395;28;20464;-88
2021/01/03 01:52:03;;;;;;;102.25;39.40;;;4.00;91.90;;;;;;5078979;28;20024;-88
2021/01/03 01:54:36;;;;;;;108.63;39.38;;;4.00;91.90;;;;;;5078886;28;20024;-87
2021/01/03 01:57:38;;;;;;;105.82;38.28;;;4.00;91.90;;;;;;5079206;28;20067;-88
2021/01/03 02:00:08;;;;;;;103.03;37.35;;;4.00;92.00;;;;;;5078939;28;20496;-87
2021/01/03 02:02:47;;;;;;;93.47;35.65;;;4.00;91.90;;;;;;5078623;28;20032;-88
2021/01/03 02:05:34;;;;;;;108.95;41.40;;;4.00;92.00;;;;;;5079117;28;20028;-88
2021/01/03 02:08:13;;;;;;;123.93;44.10;;;4.00;92.00;;;;;;5079489;28;20035;-88
2021/01/03 02:10:43;;;;;;;108.38;40.25;;;4.00;91.90;;;;;;5079056;28;20016;-88
2021/01/03 02:13:27;;;;;;;111.53;40.70;;;3.90;91.90;;;;;;5078798;28;20130;-88
2021/01/03 02:15:57;;;;;;;134.63;42.95;;;3.90;92.00;;;;;;5078733;28;20023;-87
2021/01/03 02:18:23;;;;;;;113.50;41.45;;;3.90;92.00;;;;;;5094139;28;20122;-88
2021/01/03 02:20:54;;;;;;;124.97;41.70;;;3.90;92.00;;;;;;5042329;28;20555;-88
2021/01/03 02:23:38;;;;;;;124.10;42.97;;;3.90;92.00;;;;;;5058551;28;20025;-88
2021/01/03 02:26:05;;;;;;;127.28;40.78;;;3.90;92.10;;;;;;5076146;28;20066;-87
2021/01/03 02:28:37;;;;;;;123.72;41.70;;;3.90;92.10;;;;;;5058788;28;20033;-88
2021/01/03 02:31:04;;;;;;;116.07;40.33;;;3.90;92.10;;;;;;5062919;28;20081;-82
2021/01/03 02:33:46;;;;;;;106.40;39.53;;;3.90;92.10;;;;;;5077489;28;20028;-82
2021/01/03 02:36:37;;;;;;;137.25;42.78;;;3.90;92.20;;;;;;5077306;28;20024;-82
2021/01/03 02:39:31;;;;;;;115.35;40.20;;;3.90;92.20;;;;;;5072312;28;20031;-82
2021/01/03 02:42:11;;;;;;;116.93;37.38;;;3.90;92.20;;;;;;5063691;28;20024;-82
2021/01/03 02:44:37;;;;;;;116.80;39.33;;;3.90;92.10;;;;;;5093655;28;20047;-82
2021/01/03 02:47:02;;;;;;;117.93;40.88;;;3.90;92.10;;;;;;5060358;28;20024;-82
2021/01/03 02:49:28;;;;;;;123.30;41.20;;;3.90;92.10;;;;;;5077203;28;20381;-82
2021/01/03 02:51:54;;;;;;;116.22;41.67;;;3.90;92.10;;;;;;5095128;28;20028;-82
2021/01/03 02:54:20;;;;;;;121.35;41.00;;;3.90;92.10;;;;;;5060325;28;20449;-82
2021/01/03 02:56:45;;;;;;;117.18;40.42;;;3.90;92.20;;;;;;5060101;28;20048;-82
2021/01/03 02:59:11;;;;;;;120.35;39.75;;;3.90;92.20;;;;;;5077013;28;20024;-82
2021/01/03 03:01:37;;;;;;;117.55;40.13;;;3.90;92.20;;;;;;5039789;28;20036;-82
2021/01/03 03:04:03;;;;;;;114.20;39.45;;;3.90;92.20;;;;;;5039944;28;20071;-82
2021/01/03 03:06:28;;;;;;;108.38;37.53;;;3.90;92.20;;;;;;5056419;28;20584;-82
2021/01/03 03:08:54;;;;;;;118.78;40.60;;;3.90;92.20;;;;;;5056601;28;20374;-82
2021/01/03 03:11:19;;;;;;;111.47;38.17;;;3.90;92.20;;;;;;5056350;28;20112;-82
2021/01/03 03:13:45;;;;;;;106.18;37.35;;;3.90;92.20;;;;;;5050558;28;20050;-82
2021/01/03 03:16:11;;;;;;;123.68;42.08;;;3.90;92.20;;;;;;5051396;28;20052;-82
2021/01/03 03:18:36;;;;;;;129.45;41.85;;;3.90;92.20;;;;;;5076135;28;20097;-82
2021/01/03 03:21:02;;;;;;;122.47;42.03;;;3.90;92.20;;;;;;5064905;28;20388;-82
2021/01/03 03:23:27;;;;;;;120.57;41.42;;;3.90;92.20;;;;;;5079758;28;20034;-82
2021/01/03 03:25:53;;;;;;;117.72;40.25;;;3.90;92.20;;;;;;5063004;28;20046;-82
2021/01/03 03:28:18;;;;;;;121.18;42.72;;;3.90;92.30;;;;;;5062887;28;20043;-81
2021/01/03 03:30:46;;;;;;;129.10;43.13;;;3.80;92.50;;;;;;5096806;28;20035;-82
2021/01/03 03:33:11;;;;;;;114.60;40.65;;;3.90;92.60;;;;;;5080042;28;20027;-82
2021/01/03 03:35:37;;;;;;;117.53;40.85;;;3.80;92.30;;;;;;5079295;28;20035;-82
2021/01/03 03:38:05;;;;;;;111.93;40.47;;;3.90;92.30;;;;;;5073820;28;20435;-82
2021/01/03 03:40:32;;;;;;;119.55;42.03;;;3.90;92.30;;;;;;5076005;28;20016;-82
2021/01/03 03:42:59;;;;;;;131.70;43.80;;;3.90;92.30;;;;;;5075875;28;20419;-82
2021/01/03 03:45:25;;;;;;;110.40;41.17;;;3.90;92.30;;;;;;5075826;28;20024;-82
2021/01/03 03:47:51;;;;;;;114.53;41.97;;;3.90;92.30;;;;;;5075707;28;20073;-82
2021/01/03 03:50:23;;;;;;;111.07;40.40;;;3.80;92.30;;;;;;5075770;28;20050;-82
2021/01/03 03:52:49;;;;;;;122.90;41.80;;;3.90;92.40;;;;;;5059256;28;20427;-81
2021/01/03 03:55:15;;;;;;;121.68;40.17;;;3.90;92.40;;;;;;5058856;28;20036;-82
2021/01/03 03:57:40;;;;;;;123.22;42.90;;;3.90;92.40;;;;;;5075769;28;20039;-82
2021/01/03 04:00:12;;;;;;;129.13;42.95;;;3.90;92.30;;;;;;5093858;28;20032;-82
2021/01/03 04:02:41;;;;;;;114.47;40.17;;;3.90;92.40;;;;;;5075579;28;20052;-81
2021/01/03 04:05:10;;;;;;;108.15;39.38;;;3.90;92.40;;;;;;5093848;28;20028;-82
2021/01/03 04:07:35;;;;;;;113.22;40.13;;;3.90;92.40;;;;;;5075659;28;20028;-82
2021/01/03 04:10:04;;;;;;;133.88;43.15;;;3.90;92.40;;;;;;5074882;28;20089;-82
2021/01/03 04:12:29;;;;;;;120.88;41.55;;;3.90;92.40;;;;;;5075713;28;20024;-82
2021/01/03 04:14:55;;;;;;;118.80;41.25;;;3.80;92.40;;;;;;5058769;28;20094;-81
2021/01/03 04:17:21;;;;;;;117.68;41.22;;;3.80;92.40;;;;;;5055317;28;20059;-82
2021/01/03 04:19:46;;;;;;;123.07;41.90;;;3.80;92.40;;;;;;5071721;28;20028;-81
2021/01/03 04:22:12;;;;;;;128.80;44.15;;;3.80;92.40;;;;;;5072206;28;20059;-82
2021/01/03 04:24:37;;;;;;;106.43;39.03;;;3.80;92.40;;;;;;5055667;28;20218;-90
2021/01/03 04:27:06;;;;;;;117.85;40.92;;;3.80;92.40;;;;;;5056741;28;20151;-90
2021/01/03 04:29:33;;;;;;;107.45;40.88;;;3.90;92.50;;;;;;5073535;28;20111;-90
2021/01/03 04:32:02;;;;;;;122.88;42.17;;;3.80;92.50;;;;;;5073378;28;20024;-85
2021/01/03 04:34:28;;;;;;;125.63;41.95;;;3.90;92.50;;;;;;5052045;28;20116;-84
2021/01/03 04:36:56;;;;;;;128.15;43.13;;;3.90;92.50;;;;;;5069206;28;20146;-84
2021/01/03 04:39:24;;;;;;;113.23;41.07;;;3.90;92.50;;;;;;5079802;28;20035;-84
2021/01/03 04:41:56;;;;;;;117.47;41.80;;;3.90;92.50;;;;;;5055078;28;20105;-83
2021/01/03 04:44:39;;;;;;;136.10;45.40;;;3.80;92.40;;;;;;5070633;28;20032;-84
2021/01/03 04:47:49;;;;;;;118.00;41.22;;;3.90;92.50;;;;;;5072277;28;20127;-85
2021/01/03 04:50:53;;;;;;;134.88;43.35;;;3.90;92.50;;;;;;5068563;28;20020;-84
2021/01/03 04:53:42;;;;;;;116.68;42.00;;;3.80;92.40;;;;;;5071912;28;20074;-84
2021/01/03 04:56:22;;;;;;;131.82;42.55;;;3.80;92.40;;;;;;5052285;28;20029;-84
2021/01/03 04:58:47;;;;;;;120.47;40.38;;;3.80;92.50;;;;;;5063790;28;20037;-84
2021/01/03 05:01:35;;;;;;;119.53;41.28;;;3.80;92.50;;;;;;5071929;28;20035;-84
2021/01/03 05:04:20;;;;;;;118.80;42.30;;;3.80;92.50;;;;;;5072549;28;20039;-84
2021/01/03 05:06:50;;;;;;;120.97;43.25;;;3.80;92.50;;;;;;5072169;28;20024;-84
2021/01/03 05:09:16;;;;;;;122.13;41.00;;;3.80;92.80;;;;;;5072374;28;20100;-84
2021/01/03 05:12:12;;;;;;;124.95;43.65;;;3.80;92.50;;;;;;5055331;28;20025;-84
2021/01/03 05:14:53;;;;;;;123.40;42.63;;;3.80;92.50;;;;;;5072197;28;20051;-85
2021/01/03 05:17:18;;;;;;;120.65;42.95;;;3.80;92.50;;;;;;5071913;28;20052;-84
2021/01/03 05:19:45;;;;;;;133.23;44.97;;;3.90;92.50;;;;;;5038871;28;20055;-84
2021/01/03 05:22:32;;;;;;;132.07;43.70;;;3.80;92.50;;;;;;5077043;28;20056;-84
2021/01/03 05:24:59;;;;;;;123.60;43.60;;;3.80;92.50;;;;;;5075836;28;20401;-84
2021/01/03 05:27:26;;;;;;;101.85;38.80;;;3.80;92.50;;;;;;5075719;28;20025;-84
2021/01/03 05:29:52;;;;;;;126.95;44.00;;;3.80;92.50;;;;;;5058950;28;20120;-84
2021/01/03 05:32:29;;;;;;;132.77;45.53;;;3.80;92.50;;;;;;5055785;28;20048;-84
2021/01/03 05:34:54;;;;;;;117.68;42.78;;;3.80;92.50;;;;;;5072327;28;20033;-84
2021/01/03 05:37:26;;;;;;;126.45;44.78;;;3.80;92.40;;;;;;5072386;28;20524;-84
2021/01/03 05:39:52;;;;;;;107.40;40.25;;;3.80;92.50;;;;;;5075526;28;20511;-84
2021/01/03 05:42:21;;;;;;;120.57;43.38;;;3.70;92.40;;;;;;5055662;28;20029;-84
2021/01/03 05:45:00;;;;;;;115.95;42.15;;;3.80;92.50;;;;;;5055472;28;20060;-84
2021/01/03 05:47:27;;;;;;;116.28;41.80;;;3.80;92.50;;;;;;5072016;28;20478;-84
2021/01/03 05:50:08;;;;;;;128.48;43.40;;;3.80;92.50;;;;;;5055539;28;20064;-84
2021/01/03 05:52:40;;;;;;;114.78;40.85;;;3.80;92.50;;;;;;5055553;28;20025;-85
2021/01/03 05:55:07;;;;;;;113.22;41.63;;;3.80;92.50;;;;;;5056658;28;20021;-89
2021/01/03 05:57:36;;;;;;;125.18;43.78;;;3.80;92.50;;;;;;5069162;28;20339;-90
2021/01/03 06:00:21;;;;;;;;;;;3.80;92.50;;;;;;5076877;28;20489;-90
2021/01/03 06:02:47;;;;;;;112.78;40.97;;;3.80;92.40;;;;;;5077582;28;20313;-90
2021/01/03 06:05:20;;;;;;;111.35;42.30;;;3.70;92.70;;;;;;5093166;28;20158;-90
2021/01/03 06:08:10;;;;;;;123.63;42.17;;;3.70;92.50;;;;;;5076451;28;20483;-90
2021/01/03 06:10:39;;;;;;;131.88;43.67;;;3.80;92.60;;;;;;5076370;28;20032;-89
2021/01/03 06:13:08;;;;;;;112.43;41.50;;;3.70;92.50;;;;;;5059534;28;20039;-90
2021/01/03 06:15:51;;;;;;;125.60;42.88;;;3.80;92.60;;;;;;5076080;28;20071;-89
2021/01/03 06:18:38;;;;;;;118.18;43.17;;;3.80;92.60;;;;;;5075884;28;20052;-89
2021/01/03 06:21:04;;;;;;;118.60;42.95;;;3.70;92.50;;;;;;5075694;28;20037;-89
2021/01/03 06:23:51;;;;;;;119.28;44.95;;;3.70;92.50;;;;;;5076694;28;20036;-90
2021/01/03 06:26:26;;;;;;;107.97;39.75;;;3.70;92.60;;;;;;5076513;28;20390;-90
2021/01/03 06:28:54;;;;;;;102.82;39.08;;;3.80;92.70;;;;;;5076380;28;20033;-90
2021/01/03 06:31:50;;;;;;;101.32;39.88;;;3.70;92.50;;;;;;5076615;28;20025;-90
2021/01/03 06:34:28;;;;;;;120.15;43.83;;;3.80;92.60;;;;;;5076492;28;20025;-90
2021/01/03 06:36:56;;;;;;;115.20;43.13;;;3.70;92.50;;;;;;5075955;28;20024;-89
2021/01/03 06:39:55;;;;;;;111.90;40.45;;;3.70;92.50;;;;;;5076329;28;20023;-90
2021/01/03 06:42:26;;;;;;;117.55;40.85;;;3.70;92.60;;;;;;5076815;28;20035;-90
2021/01/03 06:45:20;;;;;;;111.28;40.53;;;3.70;92.60;;;;;;5076806;28;20075;-90
2021/01/03 06:48:24;;;;;;;115.43;41.45;;;3.70;92.60;;;;;;5057159;28;20036;-90
2021/01/03 06:51:20;;;;;;;104.07;39.95;;;3.70;92.60;;;;;;5076295;28;20548;-90
2021/01/03 06:53:57;;;;;;;104.85;38.33;;;3.70;92.60;;;;;;5075808;28;20393;-90
2021/01/03 06:56:44;;;;;;;115.60;42.45;;;3.70;92.60;;;;;;5076536;28;20175;-89
2021/01/03 06:59:45;;;;;;;114.28;40.13;;;3.80;92.60;;;;;;5106761;28;20404;-91
2021/01/03 07:02:11;;;;;;;120.25;41.58;;;3.80;92.60;;;;;;5075833;28;20052;-90
2021/01/03 07:04:39;;;;;;;109.60;39.88;;;3.70;92.50;;;;;;5059765;28;20040;-91
2021/01/03 07:07:17;;;;;;;103.32;39.83;;;3.80;92.60;;;;;;5076333;28;20032;-90
2021/01/03 07:10:05;;;;;;;98.47;39.05;;;3.80;92.60;;;;;;5076052;28;20028;-90
2021/01/03 07:12:41;;;;;;;106.22;39.35;;;3.70;92.60;;;;;;5075521;28;20028;-89
2021/01/03 07:15:27;;;;;;;110.45;40.97;;;3.70;92.60;;;;;;5075927;28;20590;-85
2021/01/03 07:17:56;;;;;;;97.93;37.42;;;3.70;92.50;;;;;;5073695;28;20121;-84
2021/01/03 07:20:59;;;;;;;89.72;34.38;;;3.70;92.50;;;;;;5073802;28;20071;-83
2021/01/03 07:23:36;;;;;;;94.68;36.75;;;3.80;92.60;;;;;;5061184;28;20040;-84
2021/01/03 07:26:13;;;;;;;99.00;38.95;;;3.70;92.50;;;;;;5074635;28;20050;-84
2021/01/03 07:28:39;;;;;;;87.60;35.92;;;3.70;92.40;;;;;;5073587;28;20096;-84
2021/01/03 07:31:13;;;;;;;81.40;35.42;;;3.70;92.40;;;;;;5073366;28;20082;-84
2021/01/03 07:33:55;;;;;;;91.07;36.08;;;3.80;92.50;;;;;;5073208;28;20090;-84
2021/01/03 07:36:59;;;;;;;83.00;37.40;;;3.80;92.40;;;;;;5073176;28;20024;-84
2021/01/03 07:39:31;;;;;;;94.53;37.92;;;3.80;92.70;;;;;;5051005;28;20033;-84
2021/01/03 07:42:15;;;;;;;88.88;36.78;;;3.80;92.40;;;;;;5073251;28;20017;-83
2021/01/03 07:44:40;;;;;;;86.38;36.60;;;3.70;92.30;;;;;;5072378;28;20485;-84
2021/01/03 07:47:07;;;;;;;82.60;34.55;;;3.70;92.30;;;;;;5056579;28;20037;-84
2021/01/03 07:49:46;;;;;;;83.70;37.25;;;3.70;92.30;;;;;;5073514;28;20434;-83
2021/01/03 07:52:18;;;;;;;78.50;34.83;;;3.70;92.40;;;;;;5073230;28;20546;-84
2021/01/03 07:54:54;;;;;;;84.00;34.47;;;3.70;92.10;;;;;;5072926;28;20025;-84
2021/01/03 07:57:26;;;;;;;86.40;36.10;;;3.70;92.10;;;;;;5073146;28;20107;-84
2021/01/03 07:59:53;;;;;;;74.25;32.25;;;3.70;92.10;;;;;;5072943;28;20481;-84
2021/01/03 08:02:24;;;;;;;90.72;36.05;;;3.80;92.10;;;;;;5056216;28;20031;-84
2021/01/03 08:04:53;;;;;;;82.10;34.42;;;3.70;92.00;;;;;;5073138;28;20068;-84
2021/01/03 08:07:19;;;;;;;87.15;34.90;;;3.70;91.90;;;;;;5073009;28;20473;-84
2021/01/03 08:09:45;;;;;;;74.35;33.13;;;3.80;91.80;;;;;;5073683;28;20025;-84
2021/01/03 08:12:19;;;;;;;72.60;31.70;;;3.70;91.80;;;;;;5055623;28;20033;-83
2021/01/03 08:14:46;;;;;;;70.55;31.58;;;3.80;91.80;;;;;;5071745;28;20024;-84
2021/01/03 08:17:25;;;;;;;65.10;29.63;;;3.80;91.70;;;;;;5075342;28;20040;-84
2021/01/03 08:19:51;;;;;;;62.38;29.23;;;3.70;91.60;;;;;;5093712;28;20024;-84
2021/01/03 08:22:27;;;;;;;65.45;30.10;;;3.80;91.50;;;;;;5075749;28;20134;-83
2021/01/03 08:24:55;;;;;;;66.65;30.17;;;3.80;91.50;;;;;;5093797;28;20070;-83
2021/01/03 08:27:33;;;;;;;63.80;29.17;;;3.80;91.40;;;;;;5075400;28;20031;-82
2021/01/03 08:30:06;;;;;;;62.15;29.73;;;3.80;91.70;;;;;;5075496;28;20024;-83
2021/01/03 08:32:36;;;;;;;58.38;28.20;;;3.80;91.40;;;;;;5063969;28;20058;-83
2021/01/03 08:35:12;;;;;;;59.42;28.83;;;3.80;91.40;;;;;;5075008;28;20020;-83
2021/01/03 08:37:44;;;;;;;53.50;26.42;;;3.80;91.30;;;;;;5075424;28;20024;-84
2021/01/03 08:40:11;;;;;;;55.05;26.33;;;3.80;91.30;;;;;;5093040;28;20024;-83
2021/01/03 08:42:40;;;;;;;60.97;28.63;;;3.80;91.60;;;;;;5075225;28;20511;-82
2021/01/03 08:45:07;;;;;;;;;;;3.80;91.20;;;;;;5075160;28;20093;-83
2021/01/03 08:47:39;;;;;;;52.80;26.15;;;3.80;91.00;;;;;;5075105;28;19916;-82
2021/01/03 08:50:10;;;;;;;60.33;27.83;;;3.80;91.00;;;;;;5058129;28;20376;-82
2021/01/03 08:52:36;;;;;;;52.78;25.98;;;3.80;90.80;;;;;;5074950;28;20028;-82
2021/01/03 08:55:17;;;;;;;56.35;25.52;;;3.80;90.80;;;;;;5075464;28;20111;-83
2021/01/03 08:57:44;;;;;;;52.88;25.50;;;3.80;90.70;;;;;;5079153;28;20275;-83
2021/01/03 09:00:22;;;;;;;48.70;24.98;;;3.80;90.70;;;;;;5078601;28;20024;-82
2021/01/03 09:02:48;;;;;;;44.67;22.75;;;3.80;90.60;;;;;;5078633;28;20616;-83
2021/01/03 09:05:18;;;;;;;50.70;25.00;;;3.90;90.50;;;;;;5079058;28;20032;-83
2021/01/03 09:07:45;;;;;;;44.28;22.65;;;3.90;90.30;;;;;;5078669;28;20016;-81
2021/01/03 09:10:54;;;;;;;46.95;22.65;;;3.90;90.40;;;;;;5079229;28;20024;-82
2021/01/03 09:13:23;;;;;;;;;;;3.90;90.20;;;;;;5015347;28;20030;-81
2021/01/03 09:16:21;;;;;;;41.78;19.60;;;3.90;90.30;;;;;;5097712;28;19910;-82
2021/01/03 09:19:13;;;;;;;37.67;20.05;;;3.90;90.20;;;;;;5081553;28;20043;-82
2021/01/03 09:22:05;;;;;;;34.33;19.63;;;3.90;90.10;;;;;;5078728;28;20476;-82
2021/01/03 09:24:34;;;;;;;34.97;19.58;;;3.90;89.80;;;;;;5082337;28;20040;-83
2021/01/03 09:27:03;;;;;;;36.00;18.45;;;3.90;89.30;;;;;;5072573;28;20027;-83
2021/01/03 09:29:36;;;;;;;31.50;17.98;;;3.90;88.60;;;;;;5097275;28;20020;-86
2021/01/03 09:32:04;;;;;;;34.40;18.75;;;3.90;88.50;;;;;;5079437;28;20024;-86
2021/01/03 09:34:50;;;;;;;36.72;18.63;;;3.90;88.40;;;;;;5079311;28;20488;-85
2021/01/03 09:37:27;;;;;;;31.27;17.17;;;4.00;88.30;;;;;;5078985;28;20039;-85
2021/01/03 09:40:38;;;;;;;28.80;15.90;;;4.00;87.90;;;;;;5078855;28;20070;-85
2021/01/03 09:43:25;;;;;;;33.22;16.45;;;4.00;88.10;;;;;;5072846;28;20426;-86
2021/01/03 09:46:11;;;;;;;27.95;15.75;;;4.00;87.80;;;;;;5077468;28;20027;-84
2021/01/03 09:48:39;;;;;;;29.33;15.57;;;4.00;87.60;;;;;;5096486;28;20020;-82
2021/01/03 09:51:25;;;;;;;26.92;15.10;;;4.00;87.00;;;;;;5074631;28;20499;-81
2021/01/03 09:54:19;;;;;;;23.77;14.45;;;4.00;86.60;;;;;;5046268;28;20166;-81
2021/01/03 09:56:50;;;;;;;23.20;13.80;;;4.00;87.20;;;;;;5074226;28;20027;-81
2021/01/03 09:59:20;;;;;;;22.83;13.43;;;4.00;87.30;;;;;;5074444;28;20024;-81
2021/01/03 10:01:48;;;;;;;23.65;13.20;;;4.00;86.40;;;;;;5093957;28;20028;-81
2021/01/03 10:04:19;;;;;;;24.08;13.15;;;4.10;86.10;;;;;;5095972;28;20036;-81
2021/01/03 10:06:49;;;;;;;20.13;12.73;;;4.00;85.90;;;;;;5076313;28;20108;-82
2021/01/03 10:09:23;;;;;;;;;;;4.10;85.70;;;;;;5098634;28;20024;-81
2021/01/03 10:11:49;;;;;;;22.67;13.48;;;4.00;85.80;;;;;;5077388;28;19981;-82
2021/01/03 10:14:33;;;;;;;18.17;11.18;;;4.00;84.80;;;;;;5077686;28;20020;-81
2021/01/03 10:17:14;;;;;;;21.85;11.98;;;4.00;85.40;;;;;;5077111;28;20153;-81
2021/01/03 10:19:39;;;;;;;17.50;11.00;;;4.10;85.60;;;;;;5073381;28;20066;-81
2021/01/03 10:22:22;;;;;;;19.63;11.15;;;4.10;85.50;;;;;;5094372;28;20028;-81
2021/01/03 10:24:55;;;;;;;18.13;11.05;;;4.10;85.10;;;;;;5095512;28;20469;-81
2021/01/03 10:27:20;;;;;;;16.13;10.10;;;4.10;85.10;;;;;;5072856;28;20048;-82
2021/01/03 10:29:46;;;;;;;16.58;9.93;;;4.10;84.70;;;;;;5043695;28;20487;-80
2021/01/03 10:32:12;;;;;;;16.63;9.40;;;4.10;84.40;;;;;;5077387;28;20030;-81
2021/01/03 10:34:37;;;;;;;16.83;10.25;;;4.10;84.30;;;;;;5093572;28;20546;-85
2021/01/03 10:37:03;;;;;;;16.35;9.45;;;4.10;84.70;;;;;;5060605;28;20085;-82
2021/01/03 10:39:30;;;;;;;14.43;8.85;;;4.20;84.00;;;;;;5061042;28;20090;-82
2021/01/03 10:41:56;;;;;;;17.48;9.57;;;4.20;83.70;;;;;;5077446;28;20119;-82
2021/01/03 10:44:21;;;;;;;15.00;9.20;;;4.20;83.70;;;;;;5077354;28;20070;-83
2021/01/03 10:46:48;;;;;;;16.83;9.40;;;4.20;83.80;;;;;;5071017;28;20032;-85
2021/01/03 10:49:14;;;;;;;14.85;9.77;;;4.20;83.90;;;;;;5094172;28;20028;-84
2021/01/03 10:51:42;;;;;;;17.77;9.38;;;4.20;83.70;;;;;;5111592;28;20476;-79
2021/01/03 10:54:14;;;;;;;14.70;8.18;;;4.20;83.70;;;;;;5095043;28;20484;-83
2021/01/03 10:56:40;;;;;;;16.77;9.88;;;4.20;83.60;;;;;;5077169;28;20025;-85
2021/01/03 10:59:07;;;;;;;19.55;10.73;;;4.30;83.90;;;;;;5077353;28;20020;-84
2021/01/03 11:01:37;;;;;;;20.33;10.93;;;4.30;83.10;;;;;;5060499;28;20033;-80
2021/01/03 11:04:02;;;;;;;17.08;10.02;;;4.30;83.10;;;;;;5075899;28;20032;-80
2021/01/03 11:06:40;;;;;;;17.40;9.07;;;4.30;83.40;;;;;;5059892;28;20032;-80
2021/01/03 11:09:12;;;;;;;16.33;9.45;;;4.30;83.40;;;;;;5066490;28;20020;-80
2021/01/03 11:11:37;;;;;;;16.60;9.15;;;4.30;82.60;;;;;;5076706;28;20166;-80
2021/01/03 11:14:03;;;;;;;15.85;9.05;;;4.30;82.70;;;;;;5059986;28;20111;-80
2021/01/03 11:16:38;;;;;;;16.95;9.73;;;4.30;82.50;;;;;;5076502;28;20020;-80
2021/01/03 11:19:10;;;;;;;14.75;8.80;;;4.30;82.50;;;;;;5072747;28;20045;-80
2021/01/03 11:21:36;;;;;;;16.58;9.43;;;4.30;82.50;;;;;;5072891;28;20040;-81
2021/01/03 11:24:04;;;;;;;15.27;8.70;;;4.30;82.80;;;;;;5072554;28;20075;-80
2021/01/03 11:26:32;;;;;;;15.13;8.27;;;4.30;82.90;;;;;;5072964;28;20397;-80
2021/01/03 11:28:58;;;;;;;14.90;8.10;;;4.40;82.60;;;;;;5073410;28;20024;-84
2021/01/03 11:31:38;;;;;;;15.82;7.88;;;4.40;82.20;;;;;;5074496;28;20472;-83
2021/01/03 11:34:06;;;;;;;14.85;7.90;;;4.40;82.10;;;;;;5074605;28;20086;-84
2021/01/03 11:36:32;;;;;;;12.65;8.40;;;4.30;81.70;;;;;;5072804;28;20027;-82
2021/01/03 11:39:04;;;;;;;13.77;8.52;;;4.30;81.70;;;;;;5052725;28;20040;-82
2021/01/03 11:41:30;;;;;;;11.88;7.85;;;4.30;81.50;;;;;;5086170;28;20025;-81
2021/01/03 11:43:55;;;;;;;12.48;7.25;;;4.30;81.60;;;;;;5052769;28;20029;-82
2021/01/03 11:46:23;;;;;;;13.82;8.02;;;4.30;82.00;;;;;;5072544;28;20496;-82
2021/01/03 11:48:48;;;;;;;12.57;7.70;;;4.30;81.80;;;;;;5056200;28;20024;-82
2021/01/03 11:51:14;;;;;;;11.45;7.43;;;4.30;81.20;;;;;;5052270;28;20074;-82
2021/01/03 11:53:40;;;;;;;11.57;7.38;;;4.30;81.30;;;;;;5055710;28;20029;-82
2021/01/03 11:56:06;;;;;;;11.98;7.10;;;4.30;81.60;;;;;;5073020;28;20074;-82
2021/01/03 11:58:32;;;;;;;11.00;6.63;;;4.30;81.70;;;;;;5055948;28;20082;-82
2021/01/03 12:00:58;;;;;;;10.30;6.53;;;4.30;81.70;;;;;;5073360;28;20508;-83
2021/01/03 12:03:23;;;;;;;12.73;6.47;;;4.30;81.70;;;;;;5055724;28;20032;-84
2021/01/03 12:05:49;;;;;;;13.30;6.80;;;4.30;81.40;;;;;;5055203;28;20127;-83
2021/01/03 12:08:15;;;;;;;9.07;6.50;;;4.30;80.90;;;;;;5072794;28;20104;-83
2021/01/03 12:10:41;;;;;;;9.25;6.38;;;4.40;81.00;;;;;;5052648;28;20033;-82
2021/01/03 12:13:06;;;;;;;12.20;6.90;;;4.40;81.20;;;;;;5054463;28;20036;-85
2021/01/03 12:15:33;;;;;;;9.93;6.20;;;4.30;80.70;;;;;;5066301;28;20029;-85
2021/01/03 12:17:59;;;;;;;12.52;6.63;;;4.30;80.80;;;;;;5075246;28;20036;-84
2021/01/03 12:20:25;;;;;;;10.60;6.60;;;4.30;80.90;;;;;;5059972;28;20422;-85
2021/01/03 12:22:51;;;;;;;11.48;6.88;;;4.30;82.00;;;;;;5076980;28;20032;-85
2021/01/03 12:25:18;;;;;;;10.45;6.25;;;4.30;81.00;;;;;;5059564;28;20051;-85
2021/01/03 12:27:44;;;;;;;11.25;6.30;;;4.30;81.40;;;;;;5093884;28;20056;-85
2021/01/03 12:30:10;;;;;;;11.90;6.93;;;4.40;81.50;;;;;;5093630;28;20079;-85
2021/01/03 12:32:36;;;;;;;10.95;6.45;;;4.40;81.40;;;;;;5059586;28;20076;-85
2021/01/03 12:35:03;;;;;;;10.35;6.32;;;4.40;81.20;;;;;;5094301;28;20028;-85
2021/01/03 12:37:28;;;;;;;11.68;6.20;;;4.30;80.60;;;;;;5059581;28;20073;-85
2021/01/03 12:39:54;;;;;;;9.38;5.57;;;4.30;80.70;;;;;;5059864;28;20028;-85
2021/01/03 12:42:21;;;;;;;8.88;4.88;;;4.30;80.50;;;;;;5059787;28;20024;-85
2021/01/03 12:44:48;;;;;;;6.82;5.03;;;4.30;80.30;;;;;;5094268;28;20024;-85
2021/01/03 12:47:15;;;;;;;7.18;5.32;;;4.30;79.40;;;;;;5093955;28;20055;-85
2021/01/03 12:49:40;;;;;;;7.25;5.28;;;4.30;79.70;;;;;;5076142;28;20020;-81
2021/01/03 12:52:06;;;;;;;8.73;5.60;;;4.30;79.60;;;;;;5074924;28;20054;-81
2021/01/03 12:54:32;;;;;;;7.32;5.47;;;4.30;79.70;;;;;;5075033;28;20032;-81
2021/01/03 12:56:58;;;;;;;7.68;5.55;;;4.30;79.50;;;;;;5058337;28;20032;-81
2021/01/03 12:59:24;;;;;;;8.30;5.28;;;4.30;79.50;;;;;;5076041;28;20031;-81